Terminal Aerodrome Forecast
Issued by NWS Memphis, TN

Home | Current Version | Previous Version | Text Only | Print | Product List | Glossary On
Versions: 1 2 3 4 5 6 7 8 9 10 11 12 13 14 15 16 17 18
000
FTUS44 KMEG 260343 AAA
TAFMKL
TAF AMD
KMKL 260343Z 2604/2624 30014G22KT P6SM OVC025
     FM260600 33012G20KT P6SM OVC018
     FM261400 33011KT P6SM BKN022
     FM261700 31008KT P6SM SCT040
     FM262000 27008KT P6SM FEW100=

USA.gov is the U.S. government's official web portal to all federal, state and local government web resources and services.